Time;durP1;ratioP1;P1;durP2;ratioP2;P2;SDS_P1;SDS_P2;PMS_P1;PMS_P2;Temp;Humidity;BMP_temperature;BMP_pressure;BME280_temperature;BME280_humidity;BME280_pressure;Samples;Min_cycle;Max_cycle;Signal;HPM_P1;HPM_P2
2023/12/14 00:02:38;;;;;;;;;;;7.20;99.90;;;;;;8434774;28;19928;-70
2023/12/14 00:06:40;;;;;;;;;;;7.20;99.90;;;;;;8440288;28;19973;-70
2023/12/14 00:10:41;;;;;;;;;;;7.20;99.90;;;;;;8435007;28;20345;-70
2023/12/14 00:14:43;;;;;;;;;;;7.20;99.90;;;;;;8431410;28;19935;-70
2023/12/14 00:18:45;;;;;;;;;;;7.20;99.90;;;;;;8435657;28;19934;-70
2023/12/14 00:22:47;;;;;;;;;;;7.20;99.90;;;;;;8427491;28;20330;-70
2023/12/14 00:26:48;;;;;;;;;;;7.10;99.90;;;;;;8429294;28;19928;-70
2023/12/14 00:30:50;;;;;;;;;;;7.10;99.90;;;;;;8429106;28;19928;-70
2023/12/14 00:34:52;;;;;;;;;;;7.10;99.90;;;;;;8431529;28;19927;-70
2023/12/14 00:38:55;;;;;;;;;;;7.10;99.90;;;;;;8470751;27;20411;-71
2023/12/14 00:42:57;;;;;;;;;;;7.10;99.90;;;;;;8434665;28;20049;-70
2023/12/14 00:47:00;;;;;;;;;;;7.10;99.90;;;;;;8421350;28;20025;-71
2023/12/14 00:51:01;;;;;;;;;;;7.00;99.90;;;;;;8447404;28;19923;-70
2023/12/14 00:55:03;;;;;;;;;;;7.00;99.90;;;;;;8441950;28;19924;-70
2023/12/14 00:59:05;;;;;;;;;;;7.00;99.90;;;;;;8441711;28;19969;-70
2023/12/14 01:03:07;;;;;;;;;;;7.00;99.90;;;;;;8432899;28;19932;-70
2023/12/14 01:07:09;;;;;;;;;;;7.00;99.90;;;;;;8433073;28;19985;-70
2023/12/14 01:11:11;;;;;;;;;;;7.00;99.90;;;;;;8440966;28;19932;-70
2023/12/14 01:15:13;;;;;;;;;;;7.00;99.90;;;;;;8432069;28;19975;-70
2023/12/14 01:19:14;;;;;;;;;;;7.00;99.90;;;;;;8435230;28;19924;-70
2023/12/14 01:23:16;;;;;;;;;;;7.00;99.90;;;;;;8425110;28;20387;-70
2023/12/14 01:27:18;;;;;;;;;;;7.00;99.90;;;;;;8433662;28;19928;-70
2023/12/14 01:36:23;;;;;;;;;;;7.00;99.90;;;;;;8435830;28;19971;-70
2023/12/14 01:40:25;;;;;;;;;;;7.00;99.90;;;;;;8440600;28;19924;-70
2023/12/14 01:44:27;;;;;;;;;;;6.90;99.90;;;;;;8426765;28;21459;-70
2023/12/14 01:48:28;;;;;;;;;;;6.90;99.90;;;;;;8440531;28;19931;-70
2023/12/14 01:52:30;;;;;;;;;;;6.90;99.90;;;;;;8436067;28;19928;-70
2023/12/14 01:56:32;;;;;;;;;;;7.00;99.90;;;;;;8442957;28;19924;-70
2023/12/14 02:00:39;;;;;;;;;;;6.90;99.90;;;;;;8445320;28;19923;-70
2023/12/14 02:04:41;;;;;;;;;;;7.00;99.90;;;;;;8451481;28;19935;-70
2023/12/14 02:08:43;;;;;;;;;;;7.00;99.90;;;;;;8430324;28;19924;-70
2023/12/14 02:12:44;;;;;;;;;;;7.00;99.90;;;;;;8443316;28;19928;-70
2023/12/14 02:16:46;;;;;;;;;;;7.00;99.90;;;;;;8431579;28;20584;-70
2023/12/14 02:20:48;;;;;;;;;;;6.90;99.90;;;;;;8466720;27;20044;-70
2023/12/14 02:24:49;;;;;;;;;;;6.90;99.90;;;;;;8442511;28;19923;-70
2023/12/14 02:28:51;;;;;;;;;;;6.90;99.90;;;;;;8445330;28;19932;-70
2023/12/14 02:48:03;;;;;;;;;;;6.80;99.90;;;;;;8444857;28;19916;-70
2023/12/14 02:52:05;;;;;;;;;;;6.80;99.90;;;;;;8446934;28;19924;-70
2023/12/14 02:56:07;;;;;;;;;;;6.80;99.90;;;;;;8438275;28;20303;-70
2023/12/14 03:00:09;;;;;;;;;;;6.80;99.90;;;;;;8444182;28;19924;-70
2023/12/14 03:04:10;;;;;;;;;;;6.80;99.90;;;;;;8430364;28;19931;-70
2023/12/14 03:08:12;;;;;;;;;;;6.80;99.90;;;;;;8430536;28;20290;-70
2023/12/14 03:12:14;;;;;;;;;;;6.80;99.90;;;;;;8444060;28;19999;-70
2023/12/14 03:16:18;;;;;;;;;;;6.80;99.90;;;;;;8430102;28;19924;-70
2023/12/14 03:20:20;;;;;;;;;;;6.90;99.90;;;;;;8468452;27;19939;-70
2023/12/14 03:24:22;;;;;;;;;;;6.80;99.90;;;;;;8437770;28;19924;-70
2023/12/14 03:28:24;;;;;;;;;;;6.80;99.90;;;;;;8439091;28;20382;-70
2023/12/14 03:32:26;;;;;;;;;;;6.80;99.90;;;;;;8433295;28;19974;-70
2023/12/14 03:36:28;;;;;;;;;;;6.80;99.90;;;;;;8444514;28;19924;-70
2023/12/14 03:40:29;;;;;;;;;;;6.80;99.90;;;;;;8443939;28;19977;-70
2023/12/14 03:44:31;;;;;;;;;;;6.80;99.90;;;;;;8434111;28;19928;-70
2023/12/14 03:48:33;;;;;;;;;;;6.80;99.90;;;;;;8442357;28;20288;-70
2023/12/14 03:52:35;;;;;;;;;;;6.80;99.90;;;;;;8437005;28;19936;-70
2023/12/14 03:56:37;;;;;;;;;;;6.80;99.90;;;;;;8432670;28;19924;-70
2023/12/14 04:01:06;;;;;;;;;;;6.80;99.90;;;;;;8433926;28;19924;-70
2023/12/14 04:05:10;;;;;;;;;;;6.80;99.90;;;;;;8432253;28;19956;-70
2023/12/14 04:09:11;;;;;;;;;;;6.80;99.90;;;;;;8437307;28;19928;-70
2023/12/14 04:13:13;;;;;;;;;;;6.80;99.90;;;;;;8437248;28;19932;-70
2023/12/14 04:17:15;;;;;;;;;;;6.80;99.90;;;;;;8440451;28;19938;-70
2023/12/14 04:21:16;;;;;;;;;;;6.80;99.90;;;;;;8434784;28;19987;-70
2023/12/14 04:25:18;;;;;;;;;;;6.80;99.90;;;;;;8427290;28;19978;-70
2023/12/14 04:29:20;;;;;;;;;;;6.70;99.90;;;;;;8433529;28;19931;-70
2023/12/14 04:33:21;;;;;;;;;;;6.70;99.90;;;;;;8443752;28;20290;-70
2023/12/14 04:37:23;;;;;;;;;;;6.70;99.90;;;;;;8418432;28;20256;-70
2023/12/14 04:41:25;;;;;;;;;;;6.70;99.90;;;;;;8432411;28;20032;-70
2023/12/14 04:45:27;;;;;;;;;;;6.60;99.90;;;;;;8431921;28;19955;-70
2023/12/14 04:49:28;;;;;;;;;;;6.60;99.90;;;;;;8413525;28;19992;-70
2023/12/14 04:53:30;;;;;;;;;;;6.60;99.90;;;;;;8413302;28;19950;-70
2023/12/14 04:57:32;;;;;;;;;;;6.60;99.90;;;;;;8424681;28;20372;-70
2023/12/14 05:01:33;;;;;;;;;;;6.60;99.90;;;;;;8419348;28;19978;-70
2023/12/14 05:05:35;;;;;;;;;;;6.60;99.90;;;;;;8432007;28;19924;-70
2023/12/14 05:09:37;;;;;;;;;;;6.60;99.90;;;;;;8438204;28;19924;-70
2023/12/14 05:13:39;;;;;;;;;;;6.60;99.90;;;;;;8433873;28;19931;-70
2023/12/14 05:17:41;;;;;;;;;;;6.60;99.90;;;;;;8432544;28;19936;-70
2023/12/14 05:21:43;;;;;;;;;;;6.60;99.90;;;;;;8437203;28;19984;-70
2023/12/14 05:35:52;;;;;;;;;;;6.50;99.90;;;;;;8437763;28;20007;-70
2023/12/14 05:39:54;;;;;;;;;;;6.50;99.90;;;;;;8427787;28;19930;-70
2023/12/14 05:43:55;;;;;;;;;;;6.50;99.90;;;;;;8431231;28;20370;-70
2023/12/14 05:47:57;;;;;;;;;;;6.50;99.90;;;;;;8426318;28;20303;-70
2023/12/14 05:52:11;;;;;;;;;;;6.40;99.90;;;;;;8407940;28;19932;-70
2023/12/14 05:56:13;;;;;;;;;;;6.40;99.90;;;;;;8398426;28;19928;-70
2023/12/14 06:00:15;;;;;;;;;;;6.40;99.90;;;;;;8398589;28;19924;-70
2023/12/14 06:04:17;;;;;;;;;;;6.40;99.90;;;;;;8413731;28;20429;-70
2023/12/14 06:08:19;;;;;;;;;;;6.40;99.90;;;;;;8396013;28;19954;-70
2023/12/14 06:12:21;;;;;;;;;;;6.40;99.90;;;;;;8394574;28;19924;-70
2023/12/14 06:16:22;;;;;;;;;;;6.30;99.90;;;;;;8400771;28;19924;-70
2023/12/14 06:20:24;;;;;;;;;;;6.30;99.90;;;;;;8393079;28;19928;-70
2023/12/14 06:24:26;;;;;;;;;;;6.30;99.90;;;;;;8407821;28;19924;-70
2023/12/14 06:28:27;;;;;;;;;;;6.30;99.90;;;;;;8397364;28;20265;-70
2023/12/14 06:32:29;;;;;;;;;;;6.30;99.90;;;;;;8392151;28;19947;-70
2023/12/14 06:36:31;;;;;;;;;;;6.30;99.90;;;;;;8407426;28;19978;-70
2023/12/14 06:40:33;;;;;;;;;;;6.30;99.90;;;;;;8399599;28;19931;-70
2023/12/14 06:44:35;;;;;;;;;;;6.20;99.90;;;;;;8407823;28;19974;-70
2023/12/14 06:48:38;;;;;;;;;;;6.20;99.90;;;;;;8393751;28;20342;-70
2023/12/14 06:52:40;;;;;;;;;;;6.20;99.90;;;;;;8402026;28;19931;-70
2023/12/14 06:56:41;;;;;;;;;;;6.20;99.90;;;;;;8440314;28;19967;-70
2023/12/14 07:00:43;;;;;;;;;;;6.20;99.90;;;;;;8434779;28;20342;-70
2023/12/14 07:04:45;;;;;;;;;;;6.10;99.90;;;;;;8432461;28;19924;-70
2023/12/14 07:08:47;;;;;;;;;;;6.10;99.90;;;;;;8438031;28;20398;-70
2023/12/14 07:12:49;;;;;;;;;;;6.10;99.90;;;;;;8431397;28;19978;-70
2023/12/14 07:16:50;;;;;;;;;;;6.10;99.90;;;;;;8443630;28;19997;-70
2023/12/14 07:20:52;;;;;;;;;;;6.00;99.90;;;;;;8434862;28;19973;-70
2023/12/14 07:24:54;;;;;;;;;;;6.00;99.90;;;;;;8435721;28;20449;-70
2023/12/14 07:29:00;;;;;;;;;;;6.00;99.90;;;;;;8430083;28;20384;-70
2023/12/14 07:33:02;;;;;;;;;;;6.00;99.90;;;;;;8431019;28;19978;-70
2023/12/14 07:37:05;;;;;;;;;;;6.00;99.90;;;;;;8437024;28;19970;-70
2023/12/14 07:41:07;;;;;;;;;;;6.00;99.90;;;;;;8450476;28;19931;-70
2023/12/14 07:45:09;;;;;;;;;;;6.00;99.90;;;;;;8431344;28;19927;-70
2023/12/14 07:49:13;;;;;;;;;;;6.00;99.90;;;;;;8436382;28;22808;-70
2023/12/14 07:53:14;;;;;;;;;;;5.90;99.90;;;;;;8452689;28;19931;-70
2023/12/14 07:57:17;;;;;;;;;;;5.90;99.90;;;;;;8431274;28;19924;-70
2023/12/14 08:01:20;;;;;;;;;;;5.90;99.90;;;;;;8424773;28;19928;-70
2023/12/14 08:05:22;;;;;;;;;;;5.90;99.90;;;;;;8434470;28;19924;-70
2023/12/14 08:09:23;;;;;;;;;;;5.90;99.90;;;;;;8422732;28;19924;-70
2023/12/14 08:13:25;;;;;;;;;;;5.90;99.90;;;;;;8431773;28;19943;-70
2023/12/14 08:17:27;;;;;;;;;;;5.90;99.90;;;;;;8437090;28;19923;-70
2023/12/14 08:21:29;;;;;;;;;;;5.90;99.90;;;;;;8436610;28;19930;-70
2023/12/14 08:25:31;;;;;;;;;;;5.90;99.90;;;;;;8446606;28;20369;-70
2023/12/14 08:29:33;;;;;;;;;;;6.00;99.90;;;;;;8426825;28;19978;-70
2023/12/14 08:33:35;;;;;;;;;;;6.00;99.90;;;;;;8430085;28;19932;-70
2023/12/14 08:37:36;;;;;;;;;;;6.00;99.90;;;;;;8428458;28;20438;-70
2023/12/14 08:41:38;;;;;;;;;;;6.00;99.90;;;;;;8423556;28;19931;-70
2023/12/14 08:45:40;;;;;;;;;;;6.00;99.90;;;;;;8424988;28;20291;-70
2023/12/14 08:49:42;;;;;;;;;;;6.00;99.90;;;;;;8421766;28;20283;-70
2023/12/14 08:53:43;;;;;;;;;;;6.10;99.90;;;;;;8442146;28;19924;-70
2023/12/14 08:57:45;;;;;;;;;;;6.10;99.90;;;;;;8443627;28;20271;-70
2023/12/14 09:01:47;;;;;;;;;;;6.10;99.90;;;;;;8428226;28;19924;-70
2023/12/14 09:05:48;;;;;;;;;;;6.10;99.90;;;;;;8441344;28;19935;-70
2023/12/14 09:09:50;;;;;;;;;;;6.10;99.90;;;;;;8433256;28;19924;-70
2023/12/14 09:13:52;;;;;;;;;;;6.10;99.90;;;;;;8417315;28;19935;-70
2023/12/14 09:17:54;;;;;;;;;;;6.10;99.90;;;;;;8429538;28;19928;-70
2023/12/14 09:21:56;;;;;;;;;;;6.20;99.90;;;;;;8459565;27;20303;-70
2023/12/14 09:25:58;;;;;;;;;;;6.20;99.90;;;;;;8447481;28;20291;-70
2023/12/14 09:30:00;;;;;;;;;;;6.20;99.90;;;;;;8432611;28;19932;-70
2023/12/14 09:34:02;;;;;;;;;;;6.30;99.90;;;;;;8423618;28;19924;-70
2023/12/14 09:38:04;;;;;;;;;;;6.30;99.90;;;;;;8436451;28;19935;-70
2023/12/14 09:42:07;;;;;;;;;;;6.30;99.90;;;;;;8435786;28;19936;-70
2023/12/14 09:46:09;;;;;;;;;;;6.40;99.90;;;;;;8440613;28;19928;-70
2023/12/14 09:50:11;;;;;;;;;;;6.40;99.90;;;;;;8446942;28;19976;-70
2023/12/14 09:54:12;;;;;;;;;;;6.40;99.90;;;;;;8428471;28;20355;-70
2023/12/14 09:58:14;;;;;;;;;;;6.40;99.90;;;;;;8426275;28;19924;-70
2023/12/14 10:02:16;;;;;;;;;;;6.50;99.90;;;;;;8438408;28;19950;-70
2023/12/14 10:06:19;;;;;;;;;;;6.50;99.90;;;;;;8425573;28;19924;-70
2023/12/14 10:10:20;;;;;;;;;;;6.60;99.90;;;;;;8445730;28;19971;-70
2023/12/14 10:14:25;;;;;;;;;;;6.60;99.90;;;;;;8441307;28;20332;-70
2023/12/14 10:18:28;;;;;;;;;;;6.80;99.90;;;;;;8444323;28;19930;-70
2023/12/14 10:22:33;;;;;;;;;;;6.90;99.90;;;;;;8428129;28;19924;-70
2023/12/14 10:26:35;;;;;;;;;;;7.20;99.90;;;;;;8427975;28;19973;-70
2023/12/14 10:30:37;;;;;;;;;;;7.60;99.90;;;;;;8435902;28;19928;-70
2023/12/14 10:34:40;;;;;;;;;;;7.90;99.90;;;;;;8433636;28;20295;-70
2023/12/14 10:38:43;;;;;;;;;;;8.00;99.90;;;;;;8434591;28;20421;-70
2023/12/14 10:42:45;;;;;;;;;;;8.00;99.90;;;;;;8437471;28;20011;-70
2023/12/14 10:46:50;;;;;;;;;;;8.00;99.90;;;;;;8432698;28;19924;-70
2023/12/14 10:50:53;;;;;;;;;;;8.00;99.90;;;;;;8444808;28;20278;-70
2023/12/14 10:54:58;;;;;;;;;;;8.00;99.90;;;;;;8442120;28;20397;-70
2023/12/14 10:59:00;;;;;;;;;;;8.00;99.90;;;;;;8444158;28;19976;-70
2023/12/14 11:03:04;;;;;;;;;;;8.00;99.90;;;;;;8438210;28;19924;-70
2023/12/14 11:07:06;;;;;;;;;;;8.10;99.90;;;;;;8420938;28;20284;-70
2023/12/14 11:11:11;;;;;;;;;;;8.10;99.90;;;;;;8419500;28;20303;-70
2023/12/14 11:15:13;;;;;;;;;;;8.20;99.90;;;;;;8436451;28;20375;-70
2023/12/14 11:19:21;;;;;;;;;;;8.50;99.90;;;;;;8428809;28;19980;-70
2023/12/14 11:23:23;;;;;;;;;;;8.80;99.90;;;;;;8441813;28;19928;-70
2023/12/14 11:27:26;;;;;;;;;;;9.30;99.90;;;;;;8448979;28;19967;-70
2023/12/14 11:31:29;;;;;;;;;;;10.20;99.90;;;;;;8432967;28;19927;-70
2023/12/14 11:35:30;;;;;;;;;;;11.10;99.90;;;;;;8441472;28;19928;-70
2023/12/14 11:39:32;;;;;;;;;;;11.90;99.90;;;;;;8441359;28;19928;-70
2023/12/14 11:43:41;;;;;;;;;;;12.50;99.90;;;;;;8442665;28;19924;-70
2023/12/14 11:47:42;;;;;;;;;;;12.50;99.90;;;;;;8421852;28;20340;-70
2023/12/14 11:51:47;;;;;;;;;;;12.30;99.90;;;;;;8440461;28;20381;-70
2023/12/14 11:55:49;;;;;;;;;;;12.30;99.90;;;;;;8441511;28;19931;-70
2023/12/14 11:59:52;;;;;;;;;;;12.20;99.90;;;;;;8428521;28;19924;-70
2023/12/14 12:03:53;;;;;;;;;;;12.20;99.90;;;;;;8445213;28;19934;-70
2023/12/14 12:07:57;;;;;;;;;;;11.90;99.90;;;;;;8434411;28;19975;-70
2023/12/14 12:32:13;;;;;;;;;;;9.40;99.90;;;;;;8417986;28;19919;-70
2023/12/14 12:36:15;;;;;;;;;;;9.10;99.90;;;;;;8433553;28;19924;-70
2023/12/14 12:40:19;;;;;;;;;;;9.00;99.90;;;;;;8424859;28;19930;-70
2023/12/14 12:44:21;;;;;;;;;;;8.90;99.90;;;;;;8431944;28;20367;-70
2023/12/14 12:48:23;;;;;;;;;;;8.80;99.90;;;;;;8445698;28;19924;-70
2023/12/14 12:52:28;;;;;;;;;;;8.80;99.90;;;;;;8426545;28;19924;-70
2023/12/14 12:56:29;;;;;;;;;;;8.80;99.90;;;;;;8428141;28;19932;-70
2023/12/14 13:00:31;;;;;;;;;;;8.80;99.90;;;;;;8432376;28;19939;-70
2023/12/14 13:04:33;;;;;;;;;;;8.70;99.90;;;;;;8422075;28;19936;-70
2023/12/14 13:08:34;;;;;;;;;;;8.60;99.90;;;;;;8431003;28;19924;-70
2023/12/14 13:12:36;;;;;;;;;;;8.50;99.90;;;;;;8432693;28;19928;-70
2023/12/14 13:16:38;;;;;;;;;;;8.40;99.90;;;;;;8428960;28;19924;-70
2023/12/14 13:20:40;;;;;;;;;;;8.40;99.90;;;;;;8433542;28;19924;-70
2023/12/14 13:24:41;;;;;;;;;;;8.40;99.90;;;;;;8427530;28;19924;-70
2023/12/14 13:28:43;;;;;;;;;;;8.30;99.90;;;;;;8428255;28;19931;-70
2023/12/14 13:32:45;;;;;;;;;;;8.20;99.90;;;;;;8425975;28;19936;-70
2023/12/14 13:36:47;;;;;;;;;;;8.20;99.90;;;;;;8427920;28;19977;-70
2023/12/14 13:40:49;;;;;;;;;;;8.10;99.90;;;;;;8441273;28;19969;-70
2023/12/14 13:44:50;;;;;;;;;;;8.10;99.90;;;;;;8443879;28;19924;-70
2023/12/14 13:48:52;;;;;;;;;;;8.10;99.90;;;;;;8435218;28;20296;-70
2023/12/14 13:52:54;;;;;;;;;;;8.10;99.90;;;;;;8438647;28;19979;-70
2023/12/14 13:56:57;;;;;;;;;;;8.10;99.90;;;;;;8435274;28;19931;-70
2023/12/14 14:00:58;;;;;;;;;;;8.10;99.90;;;;;;8437935;28;19924;-70
2023/12/14 14:05:00;;;;;;;;;;;8.10;99.90;;;;;;8416140;28;19971;-70
2023/12/14 14:09:03;;;;;;;;;;;8.00;99.90;;;;;;8414064;28;20398;-70
2023/12/14 14:13:05;;;;;;;;;;;8.00;99.90;;;;;;8401433;28;20003;-70
2023/12/14 14:17:07;;;;;;;;;;;7.90;99.90;;;;;;8413604;28;19928;-70
2023/12/14 14:21:09;;;;;;;;;;;7.80;99.90;;;;;;8413291;28;19931;-70
2023/12/14 14:25:10;;;;;;;;;;;7.70;99.90;;;;;;8408420;28;20415;-70
2023/12/14 14:29:12;;;;;;;;;;;7.70;99.90;;;;;;8429327;28;19924;-70
2023/12/14 14:33:18;;;;;;;;;;;7.70;99.90;;;;;;8428859;28;19947;-70
2023/12/14 14:37:19;;;;;;;;;;;7.60;99.90;;;;;;8434303;28;19979;-70
2023/12/14 14:41:21;;;;;;;;;;;7.60;99.90;;;;;;8432780;28;20459;-70
2023/12/14 14:45:23;;;;;;;;;;;7.50;99.90;;;;;;8450876;28;19924;-70
2023/12/14 14:49:25;;;;;;;;;;;7.50;99.90;;;;;;8436113;28;19924;-70
2023/12/14 14:53:27;;;;;;;;;;;7.40;99.90;;;;;;8427193;28;19977;-69
2023/12/14 14:57:29;;;;;;;;;;;7.40;99.90;;;;;;8435184;28;19932;-70
2023/12/14 15:01:30;;;;;;;;;;;7.30;99.90;;;;;;8429569;28;20326;-70
2023/12/14 15:05:32;;;;;;;;;;;7.30;99.90;;;;;;8437980;28;20009;-70
2023/12/14 15:09:34;;;;;;;;;;;7.30;99.90;;;;;;8428595;28;19924;-70
2023/12/14 15:13:36;;;;;;;;;;;7.30;99.90;;;;;;8438731;28;19974;-70
2023/12/14 15:17:38;;;;;;;;;;;7.30;99.90;;;;;;8423132;28;20433;-70
2023/12/14 15:21:40;;;;;;;;;;;7.30;99.90;;;;;;8439210;28;19930;-70
2023/12/14 15:25:42;;;;;;;;;;;7.20;99.90;;;;;;8444918;28;19984;-70
2023/12/14 15:29:44;;;;;;;;;;;7.20;99.90;;;;;;8441213;28;19924;-70
2023/12/14 15:43:52;;;;;;;;;;;7.00;99.90;;;;;;8436906;28;20027;-70
2023/12/14 15:47:54;;;;;;;;;;;6.80;99.90;;;;;;8432037;28;19985;-70
2023/12/14 15:51:57;;;;;;;;;;;6.80;99.90;;;;;;8439440;28;20336;-70
2023/12/14 15:55:59;;;;;;;;;;;6.80;99.90;;;;;;8445171;28;20018;-70
2023/12/14 16:00:01;;;;;;;;;;;6.80;99.90;;;;;;8435184;28;19924;-70
2023/12/14 16:04:03;;;;;;;;;;;6.90;99.90;;;;;;8428497;28;19931;-70
2023/12/14 16:08:05;;;;;;;;;;;6.90;99.90;;;;;;8439111;28;19924;-70
2023/12/14 16:12:07;;;;;;;;;;;6.90;99.90;;;;;;8433510;28;19967;-70
2023/12/14 16:16:08;;;;;;;;;;;7.00;99.90;;;;;;8433101;28;20371;-70
2023/12/14 16:20:10;;;;;;;;;;;7.00;99.90;;;;;;8434066;28;19924;-70
2023/12/14 16:24:12;;;;;;;;;;;7.00;99.90;;;;;;8438644;28;19929;-70
2023/12/14 16:28:14;;;;;;;;;;;7.00;99.90;;;;;;8440064;28;19934;-70
2023/12/14 16:32:16;;;;;;;;;;;6.90;99.90;;;;;;8462516;27;20338;-70
2023/12/14 16:36:17;;;;;;;;;;;7.00;99.90;;;;;;8454043;28;19931;-70
2023/12/14 16:40:19;;;;;;;;;;;6.90;99.90;;;;;;8433659;28;19924;-70
2023/12/14 16:44:23;;;;;;;;;;;6.90;99.90;;;;;;8423353;28;19924;-70
2023/12/14 16:59:07;;;;;;;;;;;6.80;99.90;;;;;;8383097;28;20019;-70
2023/12/14 17:03:10;;;;;;;;;;;6.80;99.90;;;;;;8403487;28;19925;-70
2023/12/14 17:07:12;;;;;;;;;;;6.80;99.90;;;;;;8413079;28;20505;-70
2023/12/14 17:11:14;;;;;;;;;;;6.80;99.90;;;;;;8396737;28;19928;-70
2023/12/14 17:15:15;;;;;;;;;;;6.80;99.90;;;;;;8400483;28;19968;-70
2023/12/14 17:19:17;;;;;;;;;;;6.80;99.90;;;;;;8385781;28;19929;-70
2023/12/14 17:23:19;;;;;;;;;;;6.80;99.90;;;;;;8384005;28;19933;-70
2023/12/14 17:27:20;;;;;;;;;;;6.80;99.90;;;;;;8381605;28;19977;-70
2023/12/14 17:31:22;;;;;;;;;;;6.80;99.90;;;;;;8386180;28;19933;-70
2023/12/14 17:35:24;;;;;;;;;;;6.80;99.90;;;;;;8382422;28;19963;-70
2023/12/14 17:39:26;;;;;;;;;;;6.80;99.90;;;;;;8387365;28;20434;-70
2023/12/14 17:43:27;;;;;;;;;;;6.70;99.90;;;;;;8385867;28;20311;-70
2023/12/14 17:47:29;;;;;;;;;;;6.70;99.90;;;;;;8387246;28;19929;-70
2023/12/14 17:51:31;;;;;;;;;;;6.70;99.90;;;;;;8379263;28;20407;-70
2023/12/14 17:55:32;;;;;;;;;;;6.70;99.90;;;;;;8374814;28;20407;-70
2023/12/14 17:59:34;;;;;;;;;;;6.60;99.90;;;;;;8382790;28;19929;-70
2023/12/14 18:03:36;;;;;;;;;;;6.60;99.90;;;;;;8410268;28;19929;-70
2023/12/14 18:07:37;;;;;;;;;;;6.60;99.90;;;;;;8410944;28;19928;-70
2023/12/14 18:11:39;;;;;;;;;;;6.60;99.90;;;;;;8409697;28;20390;-70
2023/12/14 18:15:41;;;;;;;;;;;6.50;99.90;;;;;;8408819;28;19928;-70
2023/12/14 18:19:43;;;;;;;;;;;6.50;99.90;;;;;;8410325;28;19925;-70
2023/12/14 18:23:44;;;;;;;;;;;6.50;99.90;;;;;;8408818;28;19928;-70
2023/12/14 18:27:46;;;;;;;;;;;6.50;99.90;;;;;;8409835;28;20291;-70
2023/12/14 18:31:48;;;;;;;;;;;6.50;99.90;;;;;;8419214;28;19987;-70
2023/12/14 18:35:49;;;;;;;;;;;6.50;99.90;;;;;;8414384;28;19924;-70
2023/12/14 18:39:51;;;;;;;;;;;6.50;99.90;;;;;;8418273;28;19924;-69
2023/12/14 18:43:54;;;;;;;;;;;6.50;99.90;;;;;;8431798;27;19932;-70
2023/12/14 18:47:55;;;;;;;;;;;6.50;99.90;;;;;;8417161;28;19928;-70
2023/12/14 18:51:59;;;;;;;;;;;6.50;99.90;;;;;;8414279;28;19978;-70
2023/12/14 18:56:01;;;;;;;;;;;6.50;99.90;;;;;;8451106;27;19969;-70
2023/12/14 19:00:03;;;;;;;;;;;6.50;99.90;;;;;;8419743;28;19924;-70
2023/12/14 19:04:05;;;;;;;;;;;6.50;99.90;;;;;;8406622;28;19982;-70
2023/12/14 19:08:06;;;;;;;;;;;6.50;99.90;;;;;;8430817;28;19928;-70
2023/12/14 19:12:08;;;;;;;;;;;6.50;99.90;;;;;;8435947;28;19995;-70
2023/12/14 19:16:10;;;;;;;;;;;6.50;99.90;;;;;;8431781;28;20363;-70
2023/12/14 19:20:12;;;;;;;;;;;6.50;99.90;;;;;;8432634;28;20368;-69
2023/12/14 19:24:14;;;;;;;;;;;6.50;99.90;;;;;;8436046;28;20402;-70
2023/12/14 19:28:15;;;;;;;;;;;6.60;99.90;;;;;;8436420;28;20398;-70
2023/12/14 19:32:17;;;;;;;;;;;6.60;99.90;;;;;;8421272;28;19924;-70
2023/12/14 19:36:19;;;;;;;;;;;6.60;99.90;;;;;;8434655;28;20003;-70
2023/12/14 19:40:21;;;;;;;;;;;6.60;99.90;;;;;;8425429;28;20001;-70
2023/12/14 19:44:23;;;;;;;;;;;6.60;99.90;;;;;;8430659;28;20400;-70
2023/12/14 19:48:25;;;;;;;;;;;6.60;99.90;;;;;;8422070;28;19939;-70
2023/12/14 19:52:28;;;;;;;;;;;6.60;99.90;;;;;;8422924;28;19932;-70
2023/12/14 19:56:30;;;;;;;;;;;6.60;99.90;;;;;;8432853;28;20018;-70
2023/12/14 20:00:32;;;;;;;;;;;6.60;99.90;;;;;;8427433;28;20276;-70
2023/12/14 20:04:34;;;;;;;;;;;6.60;99.90;;;;;;8428993;28;19924;-70
2023/12/14 20:08:37;;;;;;;;;;;6.70;99.90;;;;;;8423707;28;19928;-70
2023/12/14 20:12:40;;;;;;;;;;;6.70;99.90;;;;;;8430317;28;19936;-70
2023/12/14 20:16:48;;;;;;;;;;;6.70;99.90;;;;;;8423841;28;19977;-70
2023/12/14 20:20:50;;;;;;;;;;;6.70;99.90;;;;;;8424666;28;19928;-70
2023/12/14 20:24:52;;;;;;;;;;;6.80;99.90;;;;;;8432683;28;19924;-70
2023/12/14 20:28:53;;;;;;;;;;;6.80;99.90;;;;;;8421208;28;19924;-70
2023/12/14 20:32:55;;;;;;;;;;;6.80;99.90;;;;;;8428231;28;19923;-70
2023/12/14 20:36:56;;;;;;;;;;;6.80;99.90;;;;;;8430769;28;20417;-70
2023/12/14 20:40:58;;;;;;;;;;;6.80;99.90;;;;;;8422269;28;20583;-70
2023/12/14 20:45:00;;;;;;;;;;;6.80;99.90;;;;;;8428623;28;20015;-70
2023/12/14 20:49:02;;;;;;;;;;;6.80;99.90;;;;;;8431764;28;19924;-70
2023/12/14 20:53:04;;;;;;;;;;;6.80;99.90;;;;;;8422440;28;19942;-70
2023/12/14 20:57:06;;;;;;;;;;;6.80;99.90;;;;;;8422941;28;19935;-70
2023/12/14 21:01:08;;;;;;;;;;;6.80;99.90;;;;;;8429874;28;19924;-70
2023/12/14 21:05:09;;;;;;;;;;;6.80;99.90;;;;;;8421141;28;19989;-70
2023/12/14 21:09:11;;;;;;;;;;;6.80;99.90;;;;;;8434462;28;19976;-70
2023/12/14 21:13:13;;;;;;;;;;;6.80;99.90;;;;;;8419536;28;19924;-70
2023/12/14 21:17:14;;;;;;;;;;;6.80;99.90;;;;;;8433228;28;19985;-70
2023/12/14 21:21:16;;;;;;;;;;;6.80;99.90;;;;;;8427796;28;20057;-70
2023/12/14 21:25:18;;;;;;;;;;;6.80;99.90;;;;;;8426756;28;19924;-70
2023/12/14 21:29:20;;;;;;;;;;;6.80;99.90;;;;;;8425406;28;19928;-70
2023/12/14 21:33:21;;;;;;;;;;;6.80;99.90;;;;;;8425334;28;19931;-70
2023/12/14 21:37:23;;;;;;;;;;;6.80;99.90;;;;;;8427150;28;19925;-70
2023/12/14 21:41:25;;;;;;;;;;;6.80;99.90;;;;;;8428783;28;20383;-70
2023/12/14 21:45:27;;;;;;;;;;;6.80;99.90;;;;;;8424641;28;20246;-69
2023/12/14 21:49:28;;;;;;;;;;;6.80;99.90;;;;;;8421681;28;19932;-70
2023/12/14 21:53:30;;;;;;;;;;;6.90;99.90;;;;;;8422866;28;19935;-70
2023/12/14 21:57:32;;;;;;;;;;;6.90;99.90;;;;;;8420663;28;19935;-70
2023/12/14 22:01:34;;;;;;;;;;;6.90;99.90;;;;;;8420691;28;20371;-70
2023/12/14 22:05:35;;;;;;;;;;;6.90;99.90;;;;;;8424010;28;20325;-70
2023/12/14 22:09:37;;;;;;;;;;;6.90;99.90;;;;;;8429737;28;19934;-70
2023/12/14 22:13:39;;;;;;;;;;;6.80;99.90;;;;;;8434564;28;19928;-70
2023/12/14 22:17:40;;;;;;;;;;;6.90;99.90;;;;;;8430517;28;20371;-70
2023/12/14 22:21:43;;;;;;;;;;;6.90;99.90;;;;;;8435612;28;19924;-70
2023/12/14 22:25:44;;;;;;;;;;;6.90;99.90;;;;;;8432282;28;19928;-70
2023/12/14 22:29:46;;;;;;;;;;;6.90;99.90;;;;;;8426788;28;19924;-70
2023/12/14 22:33:48;;;;;;;;;;;6.90;99.90;;;;;;8460082;27;20043;-70
2023/12/14 22:37:49;;;;;;;;;;;6.90;99.90;;;;;;8429960;28;20259;-70
2023/12/14 22:41:51;;;;;;;;;;;7.00;99.90;;;;;;8434872;28;19927;-70
2023/12/14 22:45:53;;;;;;;;;;;7.00;99.90;;;;;;8419614;28;20829;-70
2023/12/14 22:49:55;;;;;;;;;;;7.00;99.90;;;;;;8434762;28;19969;-70
2023/12/14 22:53:56;;;;;;;;;;;7.00;99.90;;;;;;8427309;28;19924;-70
2023/12/14 22:57:58;;;;;;;;;;;7.00;99.90;;;;;;8418536;28;19950;-70
2023/12/14 23:02:00;;;;;;;;;;;7.00;99.90;;;;;;8425543;28;20173;-70
2023/12/14 23:06:01;;;;;;;;;;;7.00;99.90;;;;;;8413494;28;19924;-70
2023/12/14 23:10:03;;;;;;;;;;;7.10;99.90;;;;;;8427555;28;19924;-70
2023/12/14 23:14:05;;;;;;;;;;;7.10;99.90;;;;;;8434805;28;20326;-70
2023/12/14 23:18:07;;;;;;;;;;;7.10;99.90;;;;;;8430315;28;20011;-70
2023/12/14 23:22:09;;;;;;;;;;;7.10;99.90;;;;;;8428675;28;20383;-70
2023/12/14 23:26:11;;;;;;;;;;;7.10;99.90;;;;;;8423585;28;19928;-70
2023/12/14 23:30:12;;;;;;;;;;;7.00;99.90;;;;;;8428824;28;20447;-70
2023/12/14 23:34:14;;;;;;;;;;;7.00;99.90;;;;;;8433859;28;19931;-70
2023/12/14 23:38:16;;;;;;;;;;;7.00;99.90;;;;;;8434357;28;19931;-70
2023/12/14 23:42:18;;;;;;;;;;;6.90;99.90;;;;;;8424639;28;19928;-70
2023/12/14 23:46:19;;;;;;;;;;;6.90;99.90;;;;;;8428421;28;19928;-70
2023/12/14 23:50:21;;;;;;;;;;;6.90;99.90;;;;;;8428349;28;19955;-70
2023/12/14 23:59:26;;;;;;;;;;;6.90;99.90;;;;;;8436429;28;19978;-70
